sensor_id;sensor_type;location;lat;lon;timestamp;P1;durP1;ratioP1;P2;durP2;ratioP2
28070;SDS011;15383;48.408;9.968;2023-07-29T00:02:23;5.90;;;2.83;;
28070;SDS011;15383;48.408;9.968;2023-07-29T00:04:49;8.00;;;2.50;;
28070;SDS011;15383;48.408;9.968;2023-07-29T00:07:14;6.68;;;2.60;;
28070;SDS011;15383;48.408;9.968;2023-07-29T00:09:40;8.40;;;2.35;;
28070;SDS011;15383;48.408;9.968;2023-07-29T00:12:05;3.10;;;2.05;;
28070;SDS011;15383;48.408;9.968;2023-07-29T00:14:31;4.18;;;2.13;;
28070;SDS011;15383;48.408;9.968;2023-07-29T00:16:57;5.43;;;2.63;;
28070;SDS011;15383;48.408;9.968;2023-07-29T00:19:23;5.70;;;2.53;;
28070;SDS011;15383;48.408;9.968;2023-07-29T00:21:48;7.60;;;2.15;;
28070;SDS011;15383;48.408;9.968;2023-07-29T00:24:14;5.95;;;2.10;;
28070;SDS011;15383;48.408;9.968;2023-07-29T00:26:40;5.75;;;2.95;;
28070;SDS011;15383;48.408;9.968;2023-07-29T00:29:05;4.50;;;2.60;;
28070;SDS011;15383;48.408;9.968;2023-07-29T00:31:31;4.05;;;2.30;;
28070;SDS011;15383;48.408;9.968;2023-07-29T00:33:56;6.65;;;2.15;;
28070;SDS011;15383;48.408;9.968;2023-07-29T00:36:23;4.40;;;2.67;;
28070;SDS011;15383;48.408;9.968;2023-07-29T00:38:48;5.95;;;2.55;;
28070;SDS011;15383;48.408;9.968;2023-07-29T00:41:14;4.78;;;2.90;;
28070;SDS011;15383;48.408;9.968;2023-07-29T00:43:40;7.50;;;2.08;;
28070;SDS011;15383;48.408;9.968;2023-07-29T00:46:06;4.40;;;2.22;;
28070;SDS011;15383;48.408;9.968;2023-07-29T00:48:34;4.68;;;2.42;;
28070;SDS011;15383;48.408;9.968;2023-07-29T00:51:00;4.38;;;2.83;;
28070;SDS011;15383;48.408;9.968;2023-07-29T00:53:26;3.72;;;2.67;;
28070;SDS011;15383;48.408;9.968;2023-07-29T00:55:51;6.18;;;2.65;;
28070;SDS011;15383;48.408;9.968;2023-07-29T00:58:17;10.52;;;3.28;;
28070;SDS011;15383;48.408;9.968;2023-07-29T01:00:44;7.68;;;3.00;;
28070;SDS011;15383;48.408;9.968;2023-07-29T01:03:10;6.30;;;2.20;;
28070;SDS011;15383;48.408;9.968;2023-07-29T01:05:41;4.15;;;2.97;;
28070;SDS011;15383;48.408;9.968;2023-07-29T01:08:31;5.57;;;2.60;;
28070;SDS011;15383;48.408;9.968;2023-07-29T01:11:04;5.50;;;2.72;;
28070;SDS011;15383;48.408;9.968;2023-07-29T01:13:50;4.85;;;2.88;;
28070;SDS011;15383;48.408;9.968;2023-07-29T01:16:34;9.63;;;3.17;;
28070;SDS011;15383;48.408;9.968;2023-07-29T01:19:06;8.65;;;3.08;;
28070;SDS011;15383;48.408;9.968;2023-07-29T01:21:45;6.72;;;2.92;;
28070;SDS011;15383;48.408;9.968;2023-07-29T01:24:11;7.65;;;3.08;;
28070;SDS011;15383;48.408;9.968;2023-07-29T01:26:37;4.95;;;3.13;;
28070;SDS011;15383;48.408;9.968;2023-07-29T01:29:02;8.55;;;3.20;;
28070;SDS011;15383;48.408;9.968;2023-07-29T01:31:33;7.75;;;3.00;;
28070;SDS011;15383;48.408;9.968;2023-07-29T01:34:06;4.18;;;2.80;;
28070;SDS011;15383;48.408;9.968;2023-07-29T01:36:40;5.10;;;3.03;;
28070;SDS011;15383;48.408;9.968;2023-07-29T01:39:06;9.65;;;2.92;;
28070;SDS011;15383;48.408;9.968;2023-07-29T01:41:33;6.68;;;2.53;;
28070;SDS011;15383;48.408;9.968;2023-07-29T01:44:00;3.70;;;2.55;;
28070;SDS011;15383;48.408;9.968;2023-07-29T01:46:26;8.65;;;2.83;;
28070;SDS011;15383;48.408;9.968;2023-07-29T01:48:52;5.07;;;3.13;;
28070;SDS011;15383;48.408;9.968;2023-07-29T01:51:18;7.63;;;2.60;;
28070;SDS011;15383;48.408;9.968;2023-07-29T01:53:43;11.10;;;2.53;;
28070;SDS011;15383;48.408;9.968;2023-07-29T01:56:09;9.25;;;2.40;;
28070;SDS011;15383;48.408;9.968;2023-07-29T01:58:34;7.57;;;2.88;;
28070;SDS011;15383;48.408;9.968;2023-07-29T02:01:00;5.00;;;2.75;;
28070;SDS011;15383;48.408;9.968;2023-07-29T02:03:26;4.50;;;2.67;;
28070;SDS011;15383;48.408;9.968;2023-07-29T02:05:51;5.57;;;2.90;;
28070;SDS011;15383;48.408;9.968;2023-07-29T02:08:17;8.02;;;2.80;;
28070;SDS011;15383;48.408;9.968;2023-07-29T02:10:42;6.28;;;3.55;;
28070;SDS011;15383;48.408;9.968;2023-07-29T02:13:10;9.98;;;3.67;;
28070;SDS011;15383;48.408;9.968;2023-07-29T02:15:36;5.85;;;2.85;;
28070;SDS011;15383;48.408;9.968;2023-07-29T02:18:01;5.55;;;2.75;;
28070;SDS011;15383;48.408;9.968;2023-07-29T02:20:28;4.13;;;2.55;;
28070;SDS011;15383;48.408;9.968;2023-07-29T02:22:54;4.30;;;2.80;;
28070;SDS011;15383;48.408;9.968;2023-07-29T02:25:19;5.10;;;2.80;;
28070;SDS011;15383;48.408;9.968;2023-07-29T02:27:45;6.15;;;2.85;;
28070;SDS011;15383;48.408;9.968;2023-07-29T02:30:11;4.68;;;2.53;;
28070;SDS011;15383;48.408;9.968;2023-07-29T02:32:37;5.53;;;2.88;;
28070;SDS011;15383;48.408;9.968;2023-07-29T02:35:03;4.63;;;2.97;;
28070;SDS011;15383;48.408;9.968;2023-07-29T02:37:29;4.43;;;2.25;;
28070;SDS011;15383;48.408;9.968;2023-07-29T02:39:55;4.85;;;2.10;;
28070;SDS011;15383;48.408;9.968;2023-07-29T02:42:21;6.18;;;2.33;;
28070;SDS011;15383;48.408;9.968;2023-07-29T02:44:46;2.47;;;1.92;;
28070;SDS011;15383;48.408;9.968;2023-07-29T02:47:12;3.10;;;2.30;;
28070;SDS011;15383;48.408;9.968;2023-07-29T02:49:38;5.57;;;2.28;;
28070;SDS011;15383;48.408;9.968;2023-07-29T02:52:03;3.55;;;2.08;;
28070;SDS011;15383;48.408;9.968;2023-07-29T02:54:29;3.25;;;2.25;;
28070;SDS011;15383;48.408;9.968;2023-07-29T02:56:55;3.65;;;2.30;;
28070;SDS011;15383;48.408;9.968;2023-07-29T02:59:21;4.97;;;2.75;;
28070;SDS011;15383;48.408;9.968;2023-07-29T03:01:46;4.03;;;2.42;;
28070;SDS011;15383;48.408;9.968;2023-07-29T03:04:12;3.60;;;2.13;;
28070;SDS011;15383;48.408;9.968;2023-07-29T03:06:38;10.60;;;3.13;;
28070;SDS011;15383;48.408;9.968;2023-07-29T03:09:03;8.07;;;2.72;;
28070;SDS011;15383;48.408;9.968;2023-07-29T03:11:29;6.00;;;2.40;;
28070;SDS011;15383;48.408;9.968;2023-07-29T03:13:56;6.25;;;2.40;;
28070;SDS011;15383;48.408;9.968;2023-07-29T03:16:22;4.78;;;2.65;;
28070;SDS011;15383;48.408;9.968;2023-07-29T03:18:48;4.97;;;2.97;;
28070;SDS011;15383;48.408;9.968;2023-07-29T03:21:14;4.63;;;2.70;;
28070;SDS011;15383;48.408;9.968;2023-07-29T03:23:39;4.03;;;2.42;;
28070;SDS011;15383;48.408;9.968;2023-07-29T03:26:05;5.80;;;3.15;;
28070;SDS011;15383;48.408;9.968;2023-07-29T03:28:38;5.15;;;2.80;;
28070;SDS011;15383;48.408;9.968;2023-07-29T03:31:05;8.68;;;3.20;;
28070;SDS011;15383;48.408;9.968;2023-07-29T03:33:30;5.20;;;2.67;;
28070;SDS011;15383;48.408;9.968;2023-07-29T03:35:56;4.30;;;2.95;;
28070;SDS011;15383;48.408;9.968;2023-07-29T03:38:22;5.72;;;2.75;;
28070;SDS011;15383;48.408;9.968;2023-07-29T03:40:47;4.68;;;3.03;;
28070;SDS011;15383;48.408;9.968;2023-07-29T03:43:13;11.07;;;3.05;;
28070;SDS011;15383;48.408;9.968;2023-07-29T03:45:39;9.43;;;2.97;;
28070;SDS011;15383;48.408;9.968;2023-07-29T03:48:05;6.50;;;2.92;;
28070;SDS011;15383;48.408;9.968;2023-07-29T03:50:33;9.02;;;3.70;;
28070;SDS011;15383;48.408;9.968;2023-07-29T03:53:03;8.63;;;3.78;;
28070;SDS011;15383;48.408;9.968;2023-07-29T03:55:29;6.55;;;2.88;;
28070;SDS011;15383;48.408;9.968;2023-07-29T03:57:56;6.78;;;3.40;;
28070;SDS011;15383;48.408;9.968;2023-07-29T04:00:22;9.13;;;3.47;;
28070;SDS011;15383;48.408;9.968;2023-07-29T04:02:48;8.35;;;3.38;;
28070;SDS011;15383;48.408;9.968;2023-07-29T04:05:14;6.70;;;3.42;;
28070;SDS011;15383;48.408;9.968;2023-07-29T04:07:39;8.93;;;3.70;;
28070;SDS011;15383;48.408;9.968;2023-07-29T04:10:05;8.93;;;3.88;;
28070;SDS011;15383;48.408;9.968;2023-07-29T04:12:32;12.60;;;3.42;;
28070;SDS011;15383;48.408;9.968;2023-07-29T04:14:58;6.20;;;3.60;;
28070;SDS011;15383;48.408;9.968;2023-07-29T04:17:26;5.20;;;3.28;;
28070;SDS011;15383;48.408;9.968;2023-07-29T04:19:51;8.38;;;3.95;;
28070;SDS011;15383;48.408;9.968;2023-07-29T04:22:17;8.48;;;3.30;;
28070;SDS011;15383;48.408;9.968;2023-07-29T04:24:43;12.60;;;3.97;;
28070;SDS011;15383;48.408;9.968;2023-07-29T04:27:08;7.32;;;3.50;;
28070;SDS011;15383;48.408;9.968;2023-07-29T04:29:34;7.03;;;4.00;;
28070;SDS011;15383;48.408;9.968;2023-07-29T04:32:03;6.80;;;3.67;;
28070;SDS011;15383;48.408;9.968;2023-07-29T04:34:29;4.88;;;2.97;;
28070;SDS011;15383;48.408;9.968;2023-07-29T04:36:55;7.80;;;3.22;;
28070;SDS011;15383;48.408;9.968;2023-07-29T04:39:20;7.88;;;3.63;;
28070;SDS011;15383;48.408;9.968;2023-07-29T04:41:46;6.45;;;3.35;;
28070;SDS011;15383;48.408;9.968;2023-07-29T04:44:12;8.18;;;3.30;;
28070;SDS011;15383;48.408;9.968;2023-07-29T04:46:37;6.93;;;3.60;;
28070;SDS011;15383;48.408;9.968;2023-07-29T04:49:03;5.95;;;3.35;;
28070;SDS011;15383;48.408;9.968;2023-07-29T04:51:29;7.18;;;4.05;;
28070;SDS011;15383;48.408;9.968;2023-07-29T04:53:56;8.27;;;4.18;;
28070;SDS011;15383;48.408;9.968;2023-07-29T04:56:22;9.32;;;4.18;;
28070;SDS011;15383;48.408;9.968;2023-07-29T04:58:48;9.63;;;4.53;;
28070;SDS011;15383;48.408;9.968;2023-07-29T05:01:14;5.88;;;4.15;;
28070;SDS011;15383;48.408;9.968;2023-07-29T05:03:39;6.65;;;4.25;;
28070;SDS011;15383;48.408;9.968;2023-07-29T05:06:05;6.70;;;4.30;;
28070;SDS011;15383;48.408;9.968;2023-07-29T05:08:30;7.47;;;4.18;;
28070;SDS011;15383;48.408;9.968;2023-07-29T05:10:56;9.73;;;4.47;;
28070;SDS011;15383;48.408;9.968;2023-07-29T05:13:22;6.63;;;4.32;;
28070;SDS011;15383;48.408;9.968;2023-07-29T05:15:48;11.07;;;3.55;;
28070;SDS011;15383;48.408;9.968;2023-07-29T05:18:14;5.30;;;3.42;;
28070;SDS011;15383;48.408;9.968;2023-07-29T05:20:41;7.45;;;4.05;;
28070;SDS011;15383;48.408;9.968;2023-07-29T05:23:06;5.28;;;3.47;;
28070;SDS011;15383;48.408;9.968;2023-07-29T05:25:32;8.02;;;4.45;;
28070;SDS011;15383;48.408;9.968;2023-07-29T05:27:59;10.85;;;4.05;;
28070;SDS011;15383;48.408;9.968;2023-07-29T05:30:25;10.40;;;3.95;;
28070;SDS011;15383;48.408;9.968;2023-07-29T05:32:52;7.90;;;4.47;;
28070;SDS011;15383;48.408;9.968;2023-07-29T05:35:17;6.90;;;4.38;;
28070;SDS011;15383;48.408;9.968;2023-07-29T05:37:43;10.75;;;5.40;;
28070;SDS011;15383;48.408;9.968;2023-07-29T05:40:09;6.30;;;3.70;;
28070;SDS011;15383;48.408;9.968;2023-07-29T05:42:34;8.40;;;4.05;;
28070;SDS011;15383;48.408;9.968;2023-07-29T05:45:00;6.50;;;3.78;;
28070;SDS011;15383;48.408;9.968;2023-07-29T05:47:26;4.63;;;3.38;;
28070;SDS011;15383;48.408;9.968;2023-07-29T05:49:52;6.45;;;3.75;;
28070;SDS011;15383;48.408;9.968;2023-07-29T05:52:18;7.45;;;3.67;;
28070;SDS011;15383;48.408;9.968;2023-07-29T05:54:44;5.35;;;3.00;;
28070;SDS011;15383;48.408;9.968;2023-07-29T05:57:10;7.47;;;3.58;;
28070;SDS011;15383;48.408;9.968;2023-07-29T05:59:40;7.22;;;3.30;;
28070;SDS011;15383;48.408;9.968;2023-07-29T06:02:06;5.50;;;3.03;;
28070;SDS011;15383;48.408;9.968;2023-07-29T06:04:31;6.05;;;3.42;;
28070;SDS011;15383;48.408;9.968;2023-07-29T06:06:57;7.72;;;4.28;;
28070;SDS011;15383;48.408;9.968;2023-07-29T06:09:23;6.35;;;4.18;;
28070;SDS011;15383;48.408;9.968;2023-07-29T06:11:50;9.27;;;4.78;;
28070;SDS011;15383;48.408;9.968;2023-07-29T06:14:16;8.60;;;4.30;;
28070;SDS011;15383;48.408;9.968;2023-07-29T06:16:41;8.90;;;4.82;;
28070;SDS011;15383;48.408;9.968;2023-07-29T06:19:07;5.65;;;3.53;;
28070;SDS011;15383;48.408;9.968;2023-07-29T06:21:34;5.10;;;3.13;;
28070;SDS011;15383;48.408;9.968;2023-07-29T06:24:00;5.03;;;3.13;;
28070;SDS011;15383;48.408;9.968;2023-07-29T06:26:25;5.18;;;3.45;;
28070;SDS011;15383;48.408;9.968;2023-07-29T06:28:51;8.25;;;3.70;;
28070;SDS011;15383;48.408;9.968;2023-07-29T06:31:17;5.10;;;3.33;;
28070;SDS011;15383;48.408;9.968;2023-07-29T06:33:42;4.97;;;3.30;;
28070;SDS011;15383;48.408;9.968;2023-07-29T06:36:08;5.60;;;3.83;;
28070;SDS011;15383;48.408;9.968;2023-07-29T06:38:33;4.35;;;3.42;;
28070;SDS011;15383;48.408;9.968;2023-07-29T06:40:59;6.70;;;3.60;;
28070;SDS011;15383;48.408;9.968;2023-07-29T06:43:25;4.18;;;3.05;;
28070;SDS011;15383;48.408;9.968;2023-07-29T06:45:50;6.50;;;3.40;;
28070;SDS011;15383;48.408;9.968;2023-07-29T06:48:16;9.35;;;3.72;;
28070;SDS011;15383;48.408;9.968;2023-07-29T06:50:43;8.57;;;3.70;;
28070;SDS011;15383;48.408;9.968;2023-07-29T06:53:09;9.30;;;3.40;;
28070;SDS011;15383;48.408;9.968;2023-07-29T06:55:35;10.68;;;3.72;;
28070;SDS011;15383;48.408;9.968;2023-07-29T06:58:00;6.60;;;2.70;;
28070;SDS011;15383;48.408;9.968;2023-07-29T07:00:26;3.42;;;2.47;;
28070;SDS011;15383;48.408;9.968;2023-07-29T07:02:52;4.43;;;3.08;;
28070;SDS011;15383;48.408;9.968;2023-07-29T07:05:18;6.15;;;3.42;;
28070;SDS011;15383;48.408;9.968;2023-07-29T07:07:43;8.93;;;3.40;;
28070;SDS011;15383;48.408;9.968;2023-07-29T07:10:09;7.10;;;3.20;;
28070;SDS011;15383;48.408;9.968;2023-07-29T07:12:34;5.70;;;2.97;;
28070;SDS011;15383;48.408;9.968;2023-07-29T07:15:00;4.72;;;3.25;;
28070;SDS011;15383;48.408;9.968;2023-07-29T07:17:27;5.32;;;3.55;;
28070;SDS011;15383;48.408;9.968;2023-07-29T07:19:52;4.80;;;3.53;;
28070;SDS011;15383;48.408;9.968;2023-07-29T07:22:18;4.13;;;2.85;;
28070;SDS011;15383;48.408;9.968;2023-07-29T07:24:44;4.63;;;3.40;;
28070;SDS011;15383;48.408;9.968;2023-07-29T07:27:09;9.27;;;3.90;;
28070;SDS011;15383;48.408;9.968;2023-07-29T07:29:38;8.32;;;3.30;;
28070;SDS011;15383;48.408;9.968;2023-07-29T07:32:03;5.50;;;3.45;;
28070;SDS011;15383;48.408;9.968;2023-07-29T07:34:29;4.53;;;3.08;;
28070;SDS011;15383;48.408;9.968;2023-07-29T07:36:55;10.32;;;3.90;;
28070;SDS011;15383;48.408;9.968;2023-07-29T07:39:21;6.82;;;4.00;;
28070;SDS011;15383;48.408;9.968;2023-07-29T07:41:46;2.05;;;1.67;;
28070;SDS011;15383;48.408;9.968;2023-07-29T07:44:12;4.13;;;2.80;;
28070;SDS011;15383;48.408;9.968;2023-07-29T07:46:40;6.22;;;2.97;;
28070;SDS011;15383;48.408;9.968;2023-07-29T07:49:06;4.80;;;3.15;;
28070;SDS011;15383;48.408;9.968;2023-07-29T07:51:32;7.45;;;2.67;;
28070;SDS011;15383;48.408;9.968;2023-07-29T07:53:57;3.25;;;2.40;;
28070;SDS011;15383;48.408;9.968;2023-07-29T07:56:23;4.57;;;2.83;;
28070;SDS011;15383;48.408;9.968;2023-07-29T07:58:49;5.43;;;3.38;;
28070;SDS011;15383;48.408;9.968;2023-07-29T08:01:14;5.32;;;3.08;;
28070;SDS011;15383;48.408;9.968;2023-07-29T08:03:40;6.32;;;3.38;;
28070;SDS011;15383;48.408;9.968;2023-07-29T08:06:05;7.40;;;3.22;;
28070;SDS011;15383;48.408;9.968;2023-07-29T08:08:31;5.82;;;3.08;;
28070;SDS011;15383;48.408;9.968;2023-07-29T08:10:57;4.68;;;3.08;;
28070;SDS011;15383;48.408;9.968;2023-07-29T08:13:22;5.93;;;3.13;;
28070;SDS011;15383;48.408;9.968;2023-07-29T08:15:49;3.63;;;2.45;;
28070;SDS011;15383;48.408;9.968;2023-07-29T08:18:16;6.95;;;3.03;;
28070;SDS011;15383;48.408;9.968;2023-07-29T08:20:58;5.07;;;3.50;;
28070;SDS011;15383;48.408;9.968;2023-07-29T08:23:28;7.00;;;3.30;;
28070;SDS011;15383;48.408;9.968;2023-07-29T08:26:01;5.25;;;3.10;;
28070;SDS011;15383;48.408;9.968;2023-07-29T08:28:30;4.22;;;2.80;;
28070;SDS011;15383;48.408;9.968;2023-07-29T08:31:00;6.43;;;3.05;;
28070;SDS011;15383;48.408;9.968;2023-07-29T08:33:26;4.78;;;2.92;;
28070;SDS011;15383;48.408;9.968;2023-07-29T08:35:52;5.45;;;3.13;;
28070;SDS011;15383;48.408;9.968;2023-07-29T08:38:18;3.70;;;2.70;;
28070;SDS011;15383;48.408;9.968;2023-07-29T08:43:47;9.57;;;2.70;;
28070;SDS011;15383;48.408;9.968;2023-07-29T08:46:37;5.97;;;3.03;;
28070;SDS011;15383;48.408;9.968;2023-07-29T08:49:03;10.60;;;3.38;;
28070;SDS011;15383;48.408;9.968;2023-07-29T08:51:29;5.82;;;2.85;;
28070;SDS011;15383;48.408;9.968;2023-07-29T08:53:56;5.93;;;2.88;;
28070;SDS011;15383;48.408;9.968;2023-07-29T08:56:23;6.68;;;3.05;;
28070;SDS011;15383;48.408;9.968;2023-07-29T08:58:50;7.05;;;3.80;;
28070;SDS011;15383;48.408;9.968;2023-07-29T09:01:16;6.25;;;2.88;;
28070;SDS011;15383;48.408;9.968;2023-07-29T09:03:42;7.93;;;3.00;;
28070;SDS011;15383;48.408;9.968;2023-07-29T09:06:08;3.80;;;3.03;;
28070;SDS011;15383;48.408;9.968;2023-07-29T09:08:34;4.80;;;3.15;;
28070;SDS011;15383;48.408;9.968;2023-07-29T09:11:00;6.47;;;3.50;;
28070;SDS011;15383;48.408;9.968;2023-07-29T09:13:26;9.10;;;2.97;;
28070;SDS011;15383;48.408;9.968;2023-07-29T09:15:55;8.90;;;3.13;;
28070;SDS011;15383;48.408;9.968;2023-07-29T09:18:22;6.65;;;2.58;;
28070;SDS011;15383;48.408;9.968;2023-07-29T09:20:50;4.22;;;2.75;;
28070;SDS011;15383;48.408;9.968;2023-07-29T09:23:17;4.65;;;2.60;;
28070;SDS011;15383;48.408;9.968;2023-07-29T09:25:42;3.85;;;2.55;;
28070;SDS011;15383;48.408;9.968;2023-07-29T09:28:12;4.00;;;2.58;;
28070;SDS011;15383;48.408;9.968;2023-07-29T09:30:39;11.20;;;2.53;;
28070;SDS011;15383;48.408;9.968;2023-07-29T09:33:06;4.38;;;2.40;;
28070;SDS011;15383;48.408;9.968;2023-07-29T09:35:33;5.18;;;2.42;;
28070;SDS011;15383;48.408;9.968;2023-07-29T09:38:01;2.78;;;2.10;;
28070;SDS011;15383;48.408;9.968;2023-07-29T09:40:27;5.75;;;2.60;;
28070;SDS011;15383;48.408;9.968;2023-07-29T09:42:58;5.00;;;2.25;;
28070;SDS011;15383;48.408;9.968;2023-07-29T09:45:25;3.10;;;2.45;;
28070;SDS011;15383;48.408;9.968;2023-07-29T09:47:51;3.45;;;2.30;;
28070;SDS011;15383;48.408;9.968;2023-07-29T09:50:19;5.25;;;2.78;;
28070;SDS011;15383;48.408;9.968;2023-07-29T09:52:52;5.88;;;2.60;;
28070;SDS011;15383;48.408;9.968;2023-07-29T09:55:19;3.63;;;2.45;;
28070;SDS011;15383;48.408;9.968;2023-07-29T09:57:52;10.82;;;2.92;;
28070;SDS011;15383;48.408;9.968;2023-07-29T10:00:19;9.63;;;2.50;;
28070;SDS011;15383;48.408;9.968;2023-07-29T10:02:45;8.23;;;3.17;;
28070;SDS011;15383;48.408;9.968;2023-07-29T10:05:11;11.25;;;3.85;;
28070;SDS011;15383;48.408;9.968;2023-07-29T10:07:37;4.80;;;2.85;;
28070;SDS011;15383;48.408;9.968;2023-07-29T10:10:05;6.72;;;3.08;;
28070;SDS011;15383;48.408;9.968;2023-07-29T10:12:32;4.32;;;2.35;;
28070;SDS011;15383;48.408;9.968;2023-07-29T10:14:59;6.72;;;2.20;;
28070;SDS011;15383;48.408;9.968;2023-07-29T10:17:26;8.30;;;2.85;;
28070;SDS011;15383;48.408;9.968;2023-07-29T10:19:52;7.50;;;2.47;;
28070;SDS011;15383;48.408;9.968;2023-07-29T10:22:21;5.05;;;2.33;;
28070;SDS011;15383;48.408;9.968;2023-07-29T10:24:50;6.32;;;2.60;;
28070;SDS011;15383;48.408;9.968;2023-07-29T10:27:19;6.63;;;2.53;;
28070;SDS011;15383;48.408;9.968;2023-07-29T10:29:45;6.80;;;3.05;;
28070;SDS011;15383;48.408;9.968;2023-07-29T10:32:11;2.53;;;1.90;;
28070;SDS011;15383;48.408;9.968;2023-07-29T10:34:37;4.07;;;2.08;;
28070;SDS011;15383;48.408;9.968;2023-07-29T10:37:04;3.40;;;2.38;;
28070;SDS011;15383;48.408;9.968;2023-07-29T10:39:37;4.70;;;2.33;;
28070;SDS011;15383;48.408;9.968;2023-07-29T10:42:16;3.58;;;2.47;;
28070;SDS011;15383;48.408;9.968;2023-07-29T10:49:49;5.57;;;2.40;;
28070;SDS011;15383;48.408;9.968;2023-07-29T10:54:57;8.40;;;2.78;;
28070;SDS011;15383;48.408;9.968;2023-07-29T10:59:58;5.82;;;2.67;;
28070;SDS011;15383;48.408;9.968;2023-07-29T11:02:28;4.55;;;2.40;;
28070;SDS011;15383;48.408;9.968;2023-07-29T11:04:55;4.28;;;2.45;;
28070;SDS011;15383;48.408;9.968;2023-07-29T11:07:22;5.32;;;3.35;;
28070;SDS011;15383;48.408;9.968;2023-07-29T11:09:52;5.73;;;2.93;;
28070;SDS011;15383;48.408;9.968;2023-07-29T11:17:34;6.28;;;2.90;;
28070;SDS011;15383;48.408;9.968;2023-07-29T11:20:01;5.07;;;2.75;;
28070;SDS011;15383;48.408;9.968;2023-07-29T11:22:28;3.67;;;2.67;;
28070;SDS011;15383;48.408;9.968;2023-07-29T11:24:54;8.63;;;2.30;;
28070;SDS011;15383;48.408;9.968;2023-07-29T11:27:20;2.60;;;2.03;;
28070;SDS011;15383;48.408;9.968;2023-07-29T11:29:46;3.15;;;2.20;;
28070;SDS011;15383;48.408;9.968;2023-07-29T11:32:12;3.25;;;2.13;;
28070;SDS011;15383;48.408;9.968;2023-07-29T11:34:38;5.25;;;2.42;;
28070;SDS011;15383;48.408;9.968;2023-07-29T11:37:05;2.50;;;1.60;;
28070;SDS011;15383;48.408;9.968;2023-07-29T11:39:31;2.92;;;1.98;;
28070;SDS011;15383;48.408;9.968;2023-07-29T11:41:58;7.47;;;3.70;;
28070;SDS011;15383;48.408;9.968;2023-07-29T11:44:24;2.90;;;2.28;;
28070;SDS011;15383;48.408;9.968;2023-07-29T11:46:50;6.28;;;3.63;;
28070;SDS011;15383;48.408;9.968;2023-07-29T11:49:16;4.18;;;2.30;;
28070;SDS011;15383;48.408;9.968;2023-07-29T11:51:41;3.63;;;2.28;;
28070;SDS011;15383;48.408;9.968;2023-07-29T11:54:08;6.50;;;2.17;;
28070;SDS011;15383;48.408;9.968;2023-07-29T11:56:34;8.10;;;1.70;;
28070;SDS011;15383;48.408;9.968;2023-07-29T11:59:01;6.20;;;3.38;;
28070;SDS011;15383;48.408;9.968;2023-07-29T12:01:28;17.67;;;6.20;;
28070;SDS011;15383;48.408;9.968;2023-07-29T12:03:54;12.20;;;7.43;;
28070;SDS011;15383;48.408;9.968;2023-07-29T12:06:22;7.50;;;3.90;;
28070;SDS011;15383;48.408;9.968;2023-07-29T12:08:49;8.95;;;3.67;;
28070;SDS011;15383;48.408;9.968;2023-07-29T12:11:15;8.73;;;3.33;;
28070;SDS011;15383;48.408;9.968;2023-07-29T12:13:41;3.92;;;2.15;;
28070;SDS011;15383;48.408;9.968;2023-07-29T12:16:08;5.85;;;3.00;;
28070;SDS011;15383;48.408;9.968;2023-07-29T12:18:33;9.45;;;3.20;;
28070;SDS011;15383;48.408;9.968;2023-07-29T12:20:59;4.00;;;2.63;;
28070;SDS011;15383;48.408;9.968;2023-07-29T12:23:25;11.60;;;4.40;;
28070;SDS011;15383;48.408;9.968;2023-07-29T12:25:56;4.32;;;2.78;;
28070;SDS011;15383;48.408;9.968;2023-07-29T12:29:44;9.07;;;2.78;;
28070;SDS011;15383;48.408;9.968;2023-07-29T12:32:11;4.38;;;3.22;;
28070;SDS011;15383;48.408;9.968;2023-07-29T12:34:37;9.80;;;3.22;;
28070;SDS011;15383;48.408;9.968;2023-07-29T12:37:04;9.25;;;4.07;;
28070;SDS011;15383;48.408;9.968;2023-07-29T12:39:35;5.30;;;3.97;;
28070;SDS011;15383;48.408;9.968;2023-07-29T12:42:05;10.10;;;6.97;;
28070;SDS011;15383;48.408;9.968;2023-07-29T12:44:33;9.82;;;4.63;;
28070;SDS011;15383;48.408;9.968;2023-07-29T12:47:00;9.93;;;3.88;;
28070;SDS011;15383;48.408;9.968;2023-07-29T12:49:28;8.60;;;2.17;;
28070;SDS011;15383;48.408;9.968;2023-07-29T12:51:57;5.25;;;3.30;;
28070;SDS011;15383;48.408;9.968;2023-07-29T12:54:23;3.50;;;2.42;;
28070;SDS011;15383;48.408;9.968;2023-07-29T12:56:49;3.03;;;2.22;;
28070;SDS011;15383;48.408;9.968;2023-07-29T12:59:15;3.00;;;1.92;;
28070;SDS011;15383;48.408;9.968;2023-07-29T13:01:40;4.97;;;3.03;;
28070;SDS011;15383;48.408;9.968;2023-07-29T13:04:06;18.65;;;3.55;;
28070;SDS011;15383;48.408;9.968;2023-07-29T13:06:32;6.03;;;2.25;;
28070;SDS011;15383;48.408;9.968;2023-07-29T13:08:57;3.80;;;2.33;;
28070;SDS011;15383;48.408;9.968;2023-07-29T13:11:23;4.47;;;2.70;;
28070;SDS011;15383;48.408;9.968;2023-07-29T13:13:49;3.47;;;2.63;;
28070;SDS011;15383;48.408;9.968;2023-07-29T13:16:14;2.95;;;2.25;;
28070;SDS011;15383;48.408;9.968;2023-07-29T13:18:43;4.93;;;2.45;;
28070;SDS011;15383;48.408;9.968;2023-07-29T13:21:09;6.50;;;2.50;;
28070;SDS011;15383;48.408;9.968;2023-07-29T13:23:35;2.50;;;1.88;;
28070;SDS011;15383;48.408;9.968;2023-07-29T13:26:01;3.65;;;2.08;;
28070;SDS011;15383;48.408;9.968;2023-07-29T13:28:27;3.88;;;2.22;;
28070;SDS011;15383;48.408;9.968;2023-07-29T13:30:52;4.57;;;2.08;;
28070;SDS011;15383;48.408;9.968;2023-07-29T13:33:18;3.65;;;1.88;;
28070;SDS011;15383;48.408;9.968;2023-07-29T13:35:44;6.43;;;2.58;;
28070;SDS011;15383;48.408;9.968;2023-07-29T13:38:09;3.22;;;1.92;;
28070;SDS011;15383;48.408;9.968;2023-07-29T13:40:36;2.42;;;1.73;;
28070;SDS011;15383;48.408;9.968;2023-07-29T13:43:01;2.42;;;1.75;;
28070;SDS011;15383;48.408;9.968;2023-07-29T13:45:27;4.65;;;2.25;;
28070;SDS011;15383;48.408;9.968;2023-07-29T13:47:53;4.20;;;2.28;;
28070;SDS011;15383;48.408;9.968;2023-07-29T13:50:18;2.33;;;1.60;;
28070;SDS011;15383;48.408;9.968;2023-07-29T13:52:44;2.42;;;1.70;;
28070;SDS011;15383;48.408;9.968;2023-07-29T13:55:09;3.10;;;2.47;;
28070;SDS011;15383;48.408;9.968;2023-07-29T13:57:36;16.17;;;2.80;;
28070;SDS011;15383;48.408;9.968;2023-07-29T14:00:02;2.90;;;1.90;;
28070;SDS011;15383;48.408;9.968;2023-07-29T14:02:28;6.90;;;1.92;;
28070;SDS011;15383;48.408;9.968;2023-07-29T14:04:56;6.45;;;2.25;;
28070;SDS011;15383;48.408;9.968;2023-07-29T14:07:22;9.80;;;2.75;;
28070;SDS011;15383;48.408;9.968;2023-07-29T14:09:47;3.20;;;2.50;;
28070;SDS011;15383;48.408;9.968;2023-07-29T14:12:13;2.92;;;2.13;;
28070;SDS011;15383;48.408;9.968;2023-07-29T14:14:40;6.82;;;3.75;;
28070;SDS011;15383;48.408;9.968;2023-07-29T14:17:06;6.53;;;2.75;;
28070;SDS011;15383;48.408;9.968;2023-07-29T14:19:33;3.80;;;2.30;;
28070;SDS011;15383;48.408;9.968;2023-07-29T14:21:59;8.18;;;2.90;;
28070;SDS011;15383;48.408;9.968;2023-07-29T14:24:25;4.43;;;2.58;;
28070;SDS011;15383;48.408;9.968;2023-07-29T14:26:50;2.47;;;2.20;;
28070;SDS011;15383;48.408;9.968;2023-07-29T14:29:16;7.70;;;1.90;;
28070;SDS011;15383;48.408;9.968;2023-07-29T14:31:41;4.57;;;2.72;;
28070;SDS011;15383;48.408;9.968;2023-07-29T14:34:07;3.70;;;2.45;;
28070;SDS011;15383;48.408;9.968;2023-07-29T14:36:32;9.85;;;3.28;;
28070;SDS011;15383;48.408;9.968;2023-07-29T14:38:58;4.78;;;3.50;;
28070;SDS011;15383;48.408;9.968;2023-07-29T14:41:24;3.17;;;2.33;;
28070;SDS011;15383;48.408;9.968;2023-07-29T14:43:49;6.50;;;2.50;;
28070;SDS011;15383;48.408;9.968;2023-07-29T14:46:15;3.40;;;2.17;;
28070;SDS011;15383;48.408;9.968;2023-07-29T14:48:40;4.82;;;2.63;;
28070;SDS011;15383;48.408;9.968;2023-07-29T14:51:06;5.82;;;2.45;;
28070;SDS011;15383;48.408;9.968;2023-07-29T14:53:32;3.45;;;2.13;;
28070;SDS011;15383;48.408;9.968;2023-07-29T14:55:58;3.45;;;2.28;;
28070;SDS011;15383;48.408;9.968;2023-07-29T14:58:23;10.60;;;2.75;;
28070;SDS011;15383;48.408;9.968;2023-07-29T15:00:50;9.85;;;2.22;;
28070;SDS011;15383;48.408;9.968;2023-07-29T15:03:16;4.38;;;2.38;;
28070;SDS011;15383;48.408;9.968;2023-07-29T15:05:42;2.97;;;2.03;;